createdAt,value
2023-01-01T00:02:24.285Z,90.65
2023-01-01T00:04:51.111Z,68.15
2023-01-01T00:07:17.871Z,53.88
2023-01-01T00:10:02.941Z,54.72
2023-01-01T00:12:31.289Z,71.57
2023-01-01T00:14:58.021Z,75.72
2023-01-01T00:17:24.835Z,54.58
2023-01-01T00:19:51.554Z,108.80
2023-01-01T00:25:06.468Z,96.82
2023-01-01T00:27:33.605Z,74.22
2023-01-01T00:30:00.366Z,77.15
2023-01-01T00:32:27.151Z,78.50
2023-01-01T00:34:53.921Z,76.75
2023-01-01T00:37:20.804Z,72.90
2023-01-01T00:39:47.541Z,82.28
2023-01-01T00:42:14.301Z,87.85
2023-01-01T00:44:41.010Z,83.03
2023-01-01T00:47:07.827Z,79.40
2023-01-01T00:49:34.564Z,80.18
2023-01-01T00:52:01.361Z,85.80
2023-01-01T00:54:28.093Z,71.75
2023-01-01T00:56:55.709Z,75.78
2023-01-01T00:59:28.327Z,64.90
2023-01-01T01:01:55.741Z,78.70
2023-01-01T01:04:22.696Z,71.60
2023-01-01T01:06:49.424Z,70.15
2023-01-01T01:09:16.155Z,71.25
2023-01-01T01:11:42.882Z,65.30
2023-01-01T01:14:09.672Z,78.28
2023-01-01T01:16:36.429Z,64.38
2023-01-01T01:19:05.507Z,64.18
2023-01-01T01:21:34.246Z,69.18
2023-01-01T01:24:03.184Z,63.58
2023-01-01T01:26:31.942Z,74.05
2023-01-01T01:28:58.896Z,75.00
2023-01-01T01:31:29.670Z,65.82
2023-01-01T01:33:57.467Z,67.33
2023-01-01T01:36:25.607Z,68.30
2023-01-01T01:38:53.008Z,71.38
2023-01-01T01:41:27.948Z,69.70
2023-01-01T01:44:04.759Z,60.90
2023-01-01T01:46:42.886Z,62.90
2023-01-01T01:49:26.496Z,63.20
2023-01-01T01:51:54.197Z,62.40
2023-01-01T01:54:24.111Z,78.63
2023-01-01T01:56:57.007Z,62.78
2023-01-01T01:59:27.238Z,68.38
2023-01-01T02:01:54.258Z,68.75
2023-01-01T02:04:21.649Z,68.03
2023-01-01T02:06:49.027Z,63.30
2023-01-01T02:09:16.808Z,64.55
2023-01-01T02:11:43.546Z,74.43
2023-01-01T02:14:10.415Z,73.50
2023-01-01T02:16:47.310Z,59.17
2023-01-01T02:19:39.043Z,63.17
2023-01-01T02:22:18.974Z,68.45
2023-01-01T02:25:17.776Z,68.70
2023-01-01T02:28:13.822Z,57.92
2023-01-01T02:30:44.564Z,65.97
2023-01-01T02:33:25.096Z,66.33
2023-01-01T02:36:12.890Z,67.90
2023-01-01T02:38:44.827Z,70.03
2023-01-01T02:41:17.743Z,73.70
2023-01-01T02:43:46.090Z,73.95
2023-01-01T02:48:49.912Z,70.72
2023-01-01T02:51:22.802Z,68.07
2023-01-01T02:54:18.264Z,63.17
2023-01-01T02:56:59.410Z,71.03
2023-01-01T02:59:44.540Z,70.70
2023-01-01T03:02:25.872Z,71.43
2023-01-01T03:05:01.601Z,71.30
2023-01-01T03:07:50.307Z,63.40
2023-01-01T03:10:45.986Z,70.88
2023-01-01T03:13:33.169Z,68.72
2023-01-01T03:16:34.407Z,76.00
2023-01-01T03:19:23.826Z,74.50
2023-01-01T03:21:52.174Z,67.63
2023-01-01T03:24:36.636Z,66.28
2023-01-01T03:27:14.561Z,87.22
2023-01-01T03:29:44.204Z,85.75
2023-01-01T03:32:21.331Z,70.25
2023-01-01T03:34:54.155Z,80.18
2023-01-01T03:37:26.156Z,74.57
2023-01-01T03:39:57.384Z,83.90
2023-01-01T03:42:36.816Z,81.85
2023-01-01T03:45:22.101Z,79.65
2023-01-01T03:47:49.015Z,89.18
2023-01-01T03:50:16.529Z,71.10
2023-01-01T03:52:56.809Z,83.65
2023-01-01T03:55:35.631Z,78.32
2023-01-01T03:58:17.952Z,81.22
2023-01-01T04:00:53.654Z,87.75
2023-01-01T04:03:24.251Z,84.28
2023-01-01T04:05:51.214Z,88.72
2023-01-01T04:08:18.411Z,79.68
2023-01-01T04:10:53.205Z,81.72
2023-01-01T04:13:20.112Z,69.55
2023-01-01T04:15:46.988Z,81.88
2023-01-01T04:18:13.825Z,78.60
2023-01-01T04:20:40.586Z,72.95
2023-01-01T04:23:07.323Z,69.90
2023-01-01T04:25:34.083Z,78.18
2023-01-01T04:28:03.555Z,69.60
2023-01-01T04:30:30.513Z,69.22
2023-01-01T04:32:57.260Z,71.05
2023-01-01T04:35:24.024Z,74.20
2023-01-01T04:37:50.754Z,73.10
2023-01-01T04:40:17.807Z,72.82
2023-01-01T04:42:44.557Z,68.70
2023-01-01T04:45:15.370Z,68.47
2023-01-01T04:47:42.605Z,71.50
2023-01-01T04:50:09.601Z,71.55
2023-01-01T04:52:36.543Z,77.55
2023-01-01T04:55:03.388Z,71.32
2023-01-01T04:57:31.423Z,65.20
2023-01-01T04:59:58.187Z,75.88
2023-01-01T05:02:25.084Z,69.50
2023-01-01T05:04:51.863Z,74.07
2023-01-01T05:07:18.579Z,71.53
2023-01-01T05:09:45.321Z,67.50
2023-01-01T05:12:12.069Z,73.15
2023-01-01T05:14:38.908Z,66.75
2023-01-01T05:17:05.649Z,66.75
2023-01-01T05:19:32.471Z,64.55
2023-01-01T05:22:00.267Z,67.72
2023-01-01T05:24:31.414Z,66.68
2023-01-01T05:26:58.181Z,66.63
2023-01-01T05:29:24.915Z,60.17
2023-01-01T05:31:51.729Z,67.93
2023-01-01T05:34:18.630Z,63.78
2023-01-01T05:36:46.031Z,59.85
2023-01-01T05:39:13.308Z,59.15
2023-01-01T05:41:40.927Z,65.05
2023-01-01T05:44:09.733Z,61.40
2023-01-01T05:46:37.141Z,59.88
2023-01-01T05:49:04.310Z,60.88
2023-01-01T05:53:58.850Z,61.05
2023-01-01T05:56:26.791Z,58.95
2023-01-01T05:58:53.942Z,60.13
2023-01-01T06:01:25.984Z,56.00
2023-01-01T06:03:54.558Z,55.35
2023-01-01T06:06:28.631Z,59.92
2023-01-01T06:08:58.143Z,62.22
2023-01-01T06:11:25.734Z,63.65
2023-01-01T06:13:56.929Z,64.30
2023-01-01T06:16:24.151Z,65.30
2023-01-01T06:18:51.017Z,60.15
2023-01-01T06:21:23.130Z,58.60
2023-01-01T06:23:50.463Z,62.15
2023-01-01T06:26:22.022Z,53.35
2023-01-01T06:28:49.935Z,50.75
2023-01-01T06:31:20.783Z,57.45
2023-01-01T06:33:48.234Z,55.55
2023-01-01T06:36:17.321Z,51.17
2023-01-01T06:38:46.683Z,51.97
2023-01-01T06:41:19.251Z,50.30
2023-01-01T06:43:46.742Z,45.38
2023-01-01T06:46:18.498Z,43.63
2023-01-01T06:51:14.958Z,56.08
2023-01-01T06:53:41.950Z,57.35
2023-01-01T06:56:09.216Z,53.63
2023-01-01T06:58:36.105Z,54.10
2023-01-01T07:01:19.463Z,47.75
2023-01-01T07:03:53.553Z,57.28
2023-01-01T07:06:21.216Z,50.70
2023-01-01T07:08:48.013Z,46.72
2023-01-01T07:11:15.131Z,56.53
2023-01-01T07:13:42.340Z,49.33
2023-01-01T07:16:12.977Z,51.13
2023-01-01T07:18:40.996Z,54.17
2023-01-01T07:21:29.545Z,51.92
2023-01-01T07:24:02.197Z,41.83
2023-01-01T07:26:30.500Z,48.28
2023-01-01T07:29:04.522Z,52.30
2023-01-01T07:31:34.707Z,54.83
2023-01-01T07:34:01.700Z,51.67
2023-01-01T07:36:28.465Z,47.13
2023-01-01T07:38:55.217Z,49.63
2023-01-01T07:41:21.992Z,49.17
2023-01-01T07:43:48.748Z,44.78
2023-01-01T07:46:19.394Z,49.22
2023-01-01T07:48:46.454Z,47.33
2023-01-01T07:51:13.382Z,47.08
2023-01-01T07:53:40.143Z,53.72
2023-01-01T07:56:07.755Z,47.60
2023-01-01T07:58:34.519Z,49.95
2023-01-01T08:01:02.550Z,49.08
2023-01-01T08:03:29.338Z,60.25
2023-01-01T08:05:56.077Z,55.25
2023-01-01T08:08:22.856Z,49.13
2023-01-01T08:10:49.605Z,50.25
2023-01-01T08:13:16.391Z,50.25
2023-01-01T08:15:43.210Z,51.95
2023-01-01T08:18:10.132Z,49.55
2023-01-01T08:20:37.109Z,49.13
2023-01-01T08:23:17.920Z,49.35
2023-01-01T08:25:44.723Z,51.28
2023-01-01T08:28:11.549Z,52.17
2023-01-01T08:30:38.407Z,51.63
2023-01-01T08:33:05.130Z,50.10
2023-01-01T08:35:41.467Z,48.42
2023-01-01T08:38:12.434Z,51.95
2023-01-01T08:40:39.787Z,55.30
2023-01-01T08:43:06.724Z,46.78
2023-01-01T08:45:33.707Z,49.28
2023-01-01T08:48:00.651Z,55.53
2023-01-01T08:50:27.530Z,60.90
2023-01-01T08:52:54.370Z,53.25
2023-01-01T08:55:21.183Z,49.22
2023-01-01T08:57:47.939Z,50.63
2023-01-01T09:00:15.527Z,46.70
2023-01-01T09:02:42.963Z,59.22
2023-01-01T09:05:10.121Z,58.53
2023-01-01T09:07:36.955Z,55.15
2023-01-01T09:10:04.356Z,56.10
2023-01-01T09:12:31.453Z,60.53
2023-01-01T09:14:58.264Z,54.85
2023-01-01T09:17:24.988Z,48.90
2023-01-01T09:19:51.792Z,55.20
2023-01-01T09:22:18.557Z,49.40
2023-01-01T09:24:45.344Z,51.65
2023-01-01T09:27:12.588Z,46.22
2023-01-01T09:29:39.348Z,42.13
2023-01-01T09:32:06.138Z,34.40
2023-01-01T09:34:32.906Z,49.22
2023-01-01T09:36:59.691Z,36.47
2023-01-01T09:39:44.859Z,32.80
2023-01-01T09:54:18.735Z,29.48
2023-01-01T09:56:46.599Z,25.52
2023-01-01T09:59:13.408Z,32.35
2023-01-01T10:06:28.931Z,22.88
2023-01-01T10:40:29.625Z,16.92
2023-01-01T10:43:01.650Z,15.15
2023-01-01T10:45:50.600Z,13.77
2023-01-01T10:48:18.788Z,15.43
2023-01-01T10:50:52.054Z,14.43
2023-01-01T10:53:25.113Z,15.00
2023-01-01T10:56:17.903Z,13.10
2023-01-01T10:58:55.953Z,14.15
2023-01-01T11:01:25.818Z,14.95
2023-01-01T11:04:09.021Z,14.98
2023-01-01T11:06:38.658Z,16.50
2023-01-01T11:09:31.979Z,13.38
2023-01-01T11:15:45.626Z,18.05
2023-01-01T11:18:19.810Z,12.90
2023-01-01T11:20:55.911Z,16.05
2023-01-01T11:34:41.242Z,19.42
2023-01-01T11:37:23.236Z,22.00
2023-01-01T11:42:24.725Z,23.90
2023-01-01T11:44:59.443Z,24.98
2023-01-01T11:47:29.062Z,27.15
2023-01-01T11:50:23.242Z,24.65
2023-01-01T11:52:52.119Z,23.02
2023-01-01T11:55:44.578Z,23.30
2023-01-01T11:58:20.016Z,26.85
2023-01-01T12:00:51.716Z,21.95
2023-01-01T12:10:42.407Z,22.35
2023-01-01T12:17:10.516Z,27.63
2023-01-01T12:19:58.531Z,25.63
2023-01-01T12:22:54.545Z,25.65
2023-01-01T12:25:21.532Z,28.17
2023-01-01T12:28:05.926Z,24.90
2023-01-01T12:31:03.433Z,29.20
2023-01-01T12:34:06.782Z,29.80
2023-01-01T12:37:08.306Z,23.35
2023-01-01T12:40:17.030Z,27.80
2023-01-01T12:43:03.783Z,24.58
2023-01-01T12:46:14.169Z,23.27
2023-01-01T12:48:59.491Z,20.98
2023-01-01T12:51:32.116Z,19.35
2023-01-01T12:54:23.322Z,19.73
2023-01-01T12:57:06.658Z,21.87
2023-01-01T12:59:39.814Z,18.17
2023-01-01T13:02:17.427Z,18.60
2023-01-01T13:04:46.268Z,16.88
2023-01-01T13:07:14.003Z,19.02
2023-01-01T13:09:45.801Z,29.52
2023-01-01T13:14:50.199Z,21.58
2023-01-01T13:17:22.762Z,17.08
2023-01-01T13:20:04.794Z,15.70
2023-01-01T13:25:14.102Z,16.80
2023-01-01T13:28:03.169Z,19.33
2023-01-01T13:30:36.161Z,15.32
2023-01-01T13:33:26.777Z,14.55
2023-01-01T13:36:19.649Z,17.27
2023-01-01T13:38:53.260Z,16.40
2023-01-01T13:41:47.467Z,15.43
2023-01-01T13:44:23.866Z,17.50
2023-01-01T13:47:15.125Z,18.45
2023-01-01T13:53:44.801Z,20.83
2023-01-01T13:56:11.527Z,19.25
2023-01-01T13:58:53.411Z,16.83
2023-01-01T14:05:06.193Z,23.95
2023-01-01T14:07:52.679Z,16.05
2023-01-01T14:10:30.927Z,16.88
2023-01-01T14:16:40.457Z,17.13
2023-01-01T14:19:14.538Z,21.88
2023-01-01T14:22:06.371Z,20.10
2023-01-01T14:24:36.341Z,21.02
2023-01-01T14:27:30.501Z,24.23
2023-01-01T14:29:59.478Z,20.45
2023-01-01T14:32:28.913Z,24.42
2023-01-01T14:35:01.324Z,19.17
2023-01-01T14:37:28.489Z,18.13
2023-01-01T14:43:29.524Z,20.60
2023-01-01T14:45:56.495Z,20.05
2023-01-01T14:48:47.274Z,20.45
2023-01-01T14:55:01.989Z,20.77
2023-01-01T15:01:17.196Z,19.25
2023-01-01T15:04:00.367Z,19.40
2023-01-01T15:06:45.093Z,20.05
2023-01-01T15:09:18.042Z,17.70
2023-01-01T15:11:44.901Z,19.92
2023-01-01T15:14:39.908Z,22.05
2023-01-01T15:17:15.070Z,22.83
2023-01-01T15:20:00.072Z,21.45
2023-01-01T15:22:31.241Z,18.50
2023-01-01T15:25:00.061Z,25.10
2023-01-01T15:28:08.486Z,27.27
2023-01-01T15:34:45.859Z,20.17
2023-01-01T15:45:35.982Z,27.58
2023-01-01T15:52:19.481Z,24.67
2023-01-01T16:09:59.324Z,23.17
2023-01-01T16:12:26.133Z,25.50
2023-01-01T16:14:52.960Z,26.55
2023-01-01T16:21:13.070Z,29.52
2023-01-01T16:27:57.633Z,29.77
2023-01-01T16:34:30.771Z,26.55
2023-01-01T16:37:57.802Z,26.52
2023-01-01T16:40:24.900Z,23.92
2023-01-01T16:42:51.693Z,30.40
2023-01-01T16:45:21.441Z,30.98
2023-01-01T16:47:48.270Z,26.80
2023-01-01T16:50:15.242Z,29.27
2023-01-01T16:52:44.856Z,28.15
2023-01-01T16:55:12.587Z,30.88
2023-01-01T16:57:40.166Z,29.77
2023-01-01T17:00:09.133Z,25.70
2023-01-01T17:02:36.216Z,31.30
2023-01-01T17:06:00.514Z,30.55
2023-01-01T17:12:08.265Z,27.95
2023-01-01T17:14:35.032Z,24.33
2023-01-01T17:17:42.735Z,26.88
2023-01-01T17:20:27.300Z,28.35
2023-01-01T17:22:54.941Z,29.05
2023-01-01T17:25:22.248Z,24.23
2023-01-01T17:27:49.028Z,24.75
2023-01-01T17:30:15.980Z,23.90
2023-01-01T17:32:42.827Z,37.53
2023-01-01T17:35:10.152Z,33.00
2023-01-01T17:37:36.925Z,35.03
2023-01-01T17:40:03.971Z,29.95
2023-01-01T17:42:30.826Z,35.28
2023-01-01T17:45:00.647Z,30.67
2023-01-01T17:47:32.710Z,29.67
2023-01-01T17:54:10.324Z,30.20
2023-01-01T17:56:39.721Z,36.50
2023-01-01T17:59:07.002Z,33.40
2023-01-01T18:01:35.971Z,26.63
2023-01-01T18:04:06.388Z,27.58
2023-01-01T18:06:40.627Z,24.23
2023-01-01T18:09:19.734Z,45.97
2023-01-01T18:11:46.587Z,34.92
2023-01-01T18:14:13.424Z,50.80
2023-01-01T18:16:43.889Z,28.98
2023-01-01T18:22:57.693Z,33.88
2023-01-01T18:29:11.329Z,23.67
2023-01-01T18:31:39.063Z,31.45
2023-01-01T18:34:07.053Z,30.67
2023-01-01T18:36:55.027Z,34.28
2023-01-01T18:39:37.074Z,30.50
2023-01-01T18:42:18.419Z,25.27
2023-01-01T18:44:45.298Z,30.75
2023-01-01T18:47:14.679Z,30.48
2023-01-01T18:49:47.482Z,26.50
2023-01-01T18:52:22.444Z,24.02
2023-01-01T19:02:43.740Z,19.45
2023-01-01T19:09:21.959Z,21.65
2023-01-01T19:11:50.247Z,20.70
2023-01-01T19:15:07.188Z,22.50
2023-01-01T19:25:43.934Z,20.88
2023-01-01T19:29:06.072Z,27.00
2023-01-01T19:35:16.703Z,22.50
2023-01-01T19:38:11.202Z,22.75
2023-01-01T19:48:18.337Z,19.63
2023-01-01T19:50:46.636Z,23.13
2023-01-01T20:16:39.477Z,27.15
2023-01-01T20:23:05.313Z,25.77
2023-01-01T20:29:19.259Z,23.05
2023-01-01T20:40:01.338Z,26.52
2023-01-01T20:42:28.224Z,27.50
2023-01-01T20:44:55.173Z,21.20
2023-01-01T20:47:22.042Z,28.05
2023-01-01T20:49:48.885Z,26.05
2023-01-01T20:52:15.743Z,27.77
2023-01-01T20:54:42.649Z,23.08
2023-01-01T20:57:09.563Z,23.05
2023-01-01T20:59:38.021Z,26.02
2023-01-01T21:02:07.835Z,25.17
2023-01-01T21:04:38.486Z,22.73
2023-01-01T21:07:10.893Z,22.92
2023-01-01T21:09:39.102Z,26.52
2023-01-01T21:12:06.746Z,29.45
2023-01-01T21:14:33.797Z,17.98
2023-01-01T21:17:01.888Z,21.50
2023-01-01T21:19:28.987Z,23.45
2023-01-01T21:21:57.366Z,26.95
2023-01-01T21:24:37.616Z,23.63
2023-01-01T21:27:30.514Z,24.00
2023-01-01T21:29:58.123Z,22.73
2023-01-01T21:32:31.675Z,94.80
2023-01-01T21:34:58.493Z,130.10
2023-01-01T21:37:47.715Z,167.98
2023-01-01T21:40:48.200Z,102.95
2023-01-01T21:43:33.153Z,123.85
2023-01-01T21:46:16.838Z,136.75
2023-01-01T21:48:56.402Z,153.52
2023-01-01T21:51:26.190Z,98.75
2023-01-01T21:54:02.038Z,69.70
2023-01-01T21:56:36.740Z,61.50
2023-01-01T21:59:26.096Z,66.20
2023-01-01T22:02:06.137Z,62.78
2023-01-01T22:04:47.471Z,54.75
2023-01-01T22:10:33.264Z,37.20
2023-01-01T22:13:00.834Z,30.77
2023-01-01T22:15:37.730Z,29.15
2023-01-01T22:18:07.483Z,30.00
2023-01-01T22:20:37.129Z,26.48
2023-01-01T22:23:28.390Z,25.13
2023-01-01T22:25:55.318Z,20.58
2023-01-01T22:28:24.599Z,22.17
2023-01-01T22:31:00.792Z,21.38
2023-01-01T22:33:38.655Z,20.13
2023-01-01T22:36:20.987Z,15.77
2023-01-01T22:38:48.898Z,17.60
2023-01-01T22:41:15.883Z,17.92
2023-01-01T22:43:45.703Z,20.05
2023-01-01T22:46:26.299Z,18.40
2023-01-01T22:48:58.075Z,18.95
2023-01-01T22:51:28.378Z,19.50
2023-01-01T22:53:55.175Z,18.73
2023-01-01T22:56:21.927Z,19.48
2023-01-01T22:58:54.764Z,17.95
2023-01-01T23:01:23.775Z,23.45
2023-01-01T23:03:50.829Z,24.73
2023-01-01T23:06:19.212Z,21.48
2023-01-01T23:08:46.575Z,19.50
2023-01-01T23:11:13.642Z,19.40
2023-01-01T23:13:59.004Z,22.38
2023-01-01T23:16:25.811Z,15.77
2023-01-01T23:18:52.713Z,16.98
2023-01-01T23:21:26.719Z,21.33
2023-01-01T23:23:56.132Z,18.70
2023-01-01T23:26:24.146Z,21.23
2023-01-01T23:28:51.584Z,16.35
2023-01-01T23:31:25.219Z,20.27
2023-01-01T23:33:54.004Z,16.52
2023-01-01T23:36:21.182Z,22.20
2023-01-01T23:38:47.928Z,24.95
2023-01-01T23:41:14.744Z,18.40
2023-01-01T23:43:43.930Z,23.25
2023-01-01T23:46:13.012Z,21.30
2023-01-01T23:48:41.935Z,22.55
2023-01-01T23:51:09.020Z,16.30
2023-01-01T23:53:35.937Z,17.48
2023-01-01T23:56:02.778Z,16.95
2023-01-01T23:58:29.532Z,18.88
